createdAt,value
2018-10-19T00:02:11.596Z,99.90
2018-10-19T00:04:40.103Z,99.90
2018-10-19T00:07:08.587Z,99.90
2018-10-19T00:09:37.122Z,99.90
2018-10-19T00:12:05.961Z,99.90
2018-10-19T00:14:34.555Z,99.90
2018-10-19T00:17:03.140Z,99.90
2018-10-19T00:19:31.626Z,99.90
2018-10-19T00:22:00.155Z,99.90
2018-10-19T00:24:28.579Z,99.90
2018-10-19T00:26:57.133Z,99.90
2018-10-19T00:29:25.560Z,99.90
2018-10-19T00:31:54.003Z,99.90
2018-10-19T00:34:22.441Z,99.90
2018-10-19T00:36:50.924Z,99.90
2018-10-19T00:39:19.501Z,99.90
2018-10-19T00:41:47.923Z,99.90
2018-10-19T00:44:16.342Z,99.90
2018-10-19T00:46:44.767Z,99.90
2018-10-19T00:49:13.195Z,99.90
2018-10-19T00:51:41.651Z,99.90
2018-10-19T00:54:10.083Z,99.90
2018-10-19T00:56:38.553Z,99.90
2018-10-19T00:59:07.040Z,99.90
2018-10-19T01:01:35.428Z,99.90
2018-10-19T01:04:03.931Z,99.90
2018-10-19T01:06:32.409Z,99.90
2018-10-19T01:09:00.895Z,99.90
2018-10-19T01:11:29.340Z,99.90
2018-10-19T01:13:57.753Z,99.90
2018-10-19T01:16:26.180Z,99.90
2018-10-19T01:18:54.592Z,99.90
2018-10-19T01:21:23.057Z,99.90
2018-10-19T01:23:51.773Z,99.90
2018-10-19T01:26:20.391Z,99.90
2018-10-19T01:28:48.994Z,99.90
2018-10-19T01:31:17.530Z,99.90
2018-10-19T01:33:46.049Z,99.90
2018-10-19T01:36:14.549Z,99.90
2018-10-19T01:38:43.107Z,99.90
2018-10-19T01:43:51.769Z,99.90
2018-10-19T01:46:20.211Z,99.90
2018-10-19T01:48:48.688Z,99.90
2018-10-19T01:51:17.227Z,99.90
2018-10-19T01:53:45.574Z,99.90
2018-10-19T01:56:14.036Z,99.90
2018-10-19T01:58:42.564Z,99.90
2018-10-19T02:01:11.762Z,99.90
2018-10-19T02:03:40.208Z,99.90
2018-10-19T02:06:08.628Z,99.90
2018-10-19T02:08:37.064Z,99.90
2018-10-19T02:11:05.915Z,99.90
2018-10-19T02:13:34.463Z,99.90
2018-10-19T02:16:02.972Z,99.90
2018-10-19T02:18:31.392Z,99.90
2018-10-19T02:20:59.876Z,99.90
2018-10-19T02:23:28.301Z,99.90
2018-10-19T02:25:56.764Z,99.90
2018-10-19T02:28:25.274Z,99.90
2018-10-19T02:30:53.703Z,99.90
2018-10-19T02:33:22.115Z,99.90
2018-10-19T02:35:50.587Z,99.90
2018-10-19T02:38:19.003Z,99.90
2018-10-19T02:40:47.406Z,99.90
2018-10-19T02:43:15.850Z,99.90
2018-10-19T02:45:44.305Z,99.90
2018-10-19T02:48:12.765Z,99.90
2018-10-19T02:50:41.272Z,99.90
2018-10-19T02:53:09.733Z,99.90
2018-10-19T02:55:38.151Z,99.90
2018-10-19T02:58:06.594Z,99.90
2018-10-19T03:00:35.012Z,99.90
2018-10-19T03:03:03.459Z,99.90
2018-10-19T03:05:31.859Z,99.90
2018-10-19T03:08:00.309Z,99.90
2018-10-19T03:10:28.719Z,99.90
2018-10-19T03:12:57.166Z,99.90
2018-10-19T03:15:25.593Z,99.90
2018-10-19T03:17:54.023Z,99.90
2018-10-19T03:20:22.467Z,99.90
2018-10-19T03:22:50.926Z,99.90
2018-10-19T03:25:19.423Z,99.90
2018-10-19T03:27:47.852Z,99.90
2018-10-19T03:30:16.350Z,99.90
2018-10-19T03:32:44.778Z,99.90
2018-10-19T03:35:13.292Z,99.90
2018-10-19T03:37:41.651Z,99.90
2018-10-19T03:40:10.075Z,99.90
2018-10-19T03:42:38.536Z,99.90
2018-10-19T03:45:07.576Z,99.90
2018-10-19T03:47:36.004Z,99.90
2018-10-19T03:50:04.494Z,99.90
2018-10-19T03:52:33.099Z,99.90
2018-10-19T03:55:01.533Z,99.90
2018-10-19T03:57:30.076Z,99.90
2018-10-19T03:59:58.614Z,99.90
2018-10-19T04:02:27.082Z,99.90
2018-10-19T04:04:55.576Z,99.90
2018-10-19T04:07:24.006Z,99.90
2018-10-19T04:09:52.449Z,99.90
2018-10-19T04:12:20.900Z,99.90
2018-10-19T04:14:49.319Z,99.90
2018-10-19T04:17:17.752Z,99.90
2018-10-19T04:19:46.193Z,99.90
2018-10-19T04:22:14.622Z,99.90
2018-10-19T04:24:43.064Z,99.90
2018-10-19T04:27:11.524Z,99.90
2018-10-19T04:29:40.025Z,99.90
2018-10-19T04:32:08.509Z,99.90
2018-10-19T04:34:36.957Z,99.90
2018-10-19T04:37:06.531Z,99.90
2018-10-19T04:39:35.324Z,99.90
2018-10-19T04:42:04.870Z,99.90
2018-10-19T04:44:33.246Z,99.90
2018-10-19T04:47:01.812Z,99.90
2018-10-19T04:49:30.300Z,99.90
2018-10-19T04:51:58.720Z,99.90
2018-10-19T04:54:27.215Z,99.90
2018-10-19T04:56:55.699Z,99.90
2018-10-19T04:59:24.113Z,99.90
2018-10-19T05:01:52.615Z,99.90
2018-10-19T05:04:21.053Z,99.90
2018-10-19T05:06:49.635Z,99.90
2018-10-19T05:09:18.020Z,99.90
2018-10-19T05:11:46.438Z,99.90
2018-10-19T05:14:14.929Z,99.90
2018-10-19T05:16:43.323Z,99.90
2018-10-19T05:19:11.806Z,99.90
2018-10-19T05:21:40.250Z,99.90
2018-10-19T05:24:08.663Z,99.90
2018-10-19T05:26:37.108Z,99.90
2018-10-19T05:29:05.931Z,99.90
2018-10-19T05:31:34.380Z,99.90
2018-10-19T05:34:02.828Z,99.90
2018-10-19T05:36:31.288Z,99.90
2018-10-19T05:38:59.725Z,99.90
2018-10-19T05:41:28.174Z,99.90
2018-10-19T05:43:56.646Z,99.90
2018-10-19T05:46:25.059Z,99.90
2018-10-19T05:48:53.556Z,99.90
2018-10-19T05:51:22.011Z,99.90
2018-10-19T05:53:50.572Z,99.90
2018-10-19T05:56:19.027Z,99.90
2018-10-19T05:58:47.528Z,99.90
2018-10-19T06:01:16.048Z,99.90
2018-10-19T06:03:44.499Z,99.90
2018-10-19T06:06:12.943Z,99.90
2018-10-19T06:08:41.395Z,99.90
2018-10-19T06:11:09.928Z,99.90
2018-10-19T06:13:38.360Z,99.90
2018-10-19T06:16:06.808Z,99.90
2018-10-19T06:18:35.292Z,99.90
2018-10-19T06:21:04.080Z,99.90
2018-10-19T06:23:32.564Z,99.90
2018-10-19T06:26:01.301Z,99.90
2018-10-19T06:28:29.738Z,99.90
2018-10-19T06:30:58.206Z,99.90
2018-10-19T06:33:26.654Z,99.90
2018-10-19T06:35:55.069Z,99.90
2018-10-19T06:38:23.595Z,99.90
2018-10-19T06:40:52.110Z,99.90
2018-10-19T06:43:20.501Z,99.90
2018-10-19T06:45:48.949Z,99.90
2018-10-19T06:48:17.375Z,99.90
2018-10-19T06:50:45.832Z,99.90
2018-10-19T06:53:14.295Z,99.90
2018-10-19T06:55:42.831Z,99.90
2018-10-19T06:58:11.279Z,99.90
2018-10-19T07:00:39.695Z,99.90
2018-10-19T07:03:08.641Z,99.90
2018-10-19T07:05:37.095Z,99.90
2018-10-19T07:08:05.765Z,99.90
2018-10-19T07:10:34.128Z,99.90
2018-10-19T07:13:02.675Z,99.90
2018-10-19T07:15:31.108Z,99.90
2018-10-19T07:17:59.553Z,99.90
2018-10-19T07:20:28.074Z,99.90
2018-10-19T07:22:56.578Z,99.90
2018-10-19T07:25:24.985Z,99.90
2018-10-19T07:27:53.407Z,99.90
2018-10-19T07:30:21.833Z,99.90
2018-10-19T07:32:50.265Z,99.90
2018-10-19T07:35:18.838Z,99.90
2018-10-19T07:37:47.215Z,99.90
2018-10-19T07:40:15.703Z,99.90
2018-10-19T07:42:44.167Z,99.90
2018-10-19T07:45:12.615Z,99.90
2018-10-19T07:47:41.340Z,99.90
2018-10-19T07:50:10.018Z,99.90
2018-10-19T07:52:39.331Z,99.90
2018-10-19T07:55:08.742Z,99.90
2018-10-19T07:57:37.250Z,99.90
2018-10-19T08:00:06.864Z,99.90
2018-10-19T08:02:35.379Z,99.90
2018-10-19T08:05:03.944Z,99.90
2018-10-19T08:07:32.314Z,99.90
2018-10-19T08:10:00.780Z,99.90
2018-10-19T08:12:29.226Z,99.90
2018-10-19T08:14:57.672Z,99.90
2018-10-19T08:17:26.120Z,99.70
2018-10-19T08:19:54.544Z,99.70
2018-10-19T08:22:23.042Z,99.90
2018-10-19T08:24:52.629Z,99.40
2018-10-19T08:27:21.157Z,99.10
2018-10-19T08:29:49.552Z,98.50
2018-10-19T08:32:18.293Z,98.50
2018-10-19T08:34:46.964Z,98.30
2018-10-19T08:37:15.451Z,98.10
2018-10-19T08:39:43.888Z,98.10
2018-10-19T08:42:12.336Z,97.90
2018-10-19T08:44:40.771Z,97.80
2018-10-19T08:47:09.293Z,97.30
2018-10-19T08:49:37.676Z,96.60
2018-10-19T08:52:06.148Z,96.10
2018-10-19T08:54:34.675Z,95.80
2018-10-19T08:57:03.124Z,95.30
2018-10-19T08:59:31.579Z,95.50
2018-10-19T09:02:00.019Z,94.90
2018-10-19T09:04:28.515Z,94.30
2018-10-19T09:06:56.966Z,93.70
2018-10-19T09:09:25.431Z,93.20
2018-10-19T09:11:53.999Z,92.80
2018-10-19T09:14:33.730Z,92.10
2018-10-19T09:17:02.881Z,91.80
2018-10-19T09:19:31.281Z,91.40
2018-10-19T09:21:59.753Z,91.20
2018-10-19T09:24:28.165Z,90.70
2018-10-19T09:26:56.671Z,90.60
2018-10-19T09:29:25.171Z,90.50
2018-10-19T09:31:53.508Z,90.50
2018-10-19T09:34:21.962Z,90.50
2018-10-19T09:36:50.592Z,91.30
2018-10-19T09:39:18.927Z,91.70
2018-10-19T09:41:47.354Z,91.90
2018-10-19T09:44:15.754Z,91.20
2018-10-19T09:46:44.210Z,90.90
2018-10-19T09:49:13.860Z,91.30
2018-10-19T09:51:42.664Z,91.40
2018-10-19T09:54:12.152Z,91.50
2018-10-19T09:56:40.664Z,91.40
2018-10-19T09:59:09.303Z,91.00
2018-10-19T10:01:38.510Z,90.70
2018-10-19T10:04:07.033Z,90.50
2018-10-19T10:06:35.545Z,89.80
2018-10-19T10:09:04.971Z,87.40
2018-10-19T10:11:33.420Z,87.20
2018-10-19T10:14:01.876Z,87.20
2018-10-19T10:16:30.398Z,87.00
2018-10-19T10:18:58.842Z,87.10
2018-10-19T10:21:27.284Z,85.10
2018-10-19T10:23:55.735Z,84.00
2018-10-19T10:26:24.226Z,80.10
2018-10-19T10:28:52.684Z,72.30
2018-10-19T10:31:21.202Z,64.80
2018-10-19T10:33:50.060Z,59.90
2018-10-19T10:36:18.516Z,60.10
2018-10-19T10:38:47.059Z,59.10
2018-10-19T10:41:15.458Z,59.90
2018-10-19T10:43:43.942Z,61.40
2018-10-19T10:46:12.496Z,58.90
2018-10-19T10:48:40.893Z,58.40
2018-10-19T10:51:09.306Z,61.50
2018-10-19T10:53:37.744Z,66.10
2018-10-19T10:56:06.223Z,69.20
2018-10-19T10:58:34.624Z,70.40
2018-10-19T11:01:03.166Z,67.00
2018-10-19T11:03:31.597Z,62.30
2018-10-19T11:06:00.591Z,60.30
2018-10-19T11:08:29.070Z,61.90
2018-10-19T11:11:07.895Z,60.30
2018-10-19T11:13:36.710Z,57.00
2018-10-19T11:16:05.215Z,55.30
2018-10-19T11:18:33.680Z,55.60
2018-10-19T11:21:02.264Z,54.10
2018-10-19T11:23:30.731Z,53.50
2018-10-19T11:25:59.189Z,52.40
2018-10-19T11:28:27.665Z,52.10
2018-10-19T11:30:56.156Z,51.00
2018-10-19T11:33:24.604Z,49.80
2018-10-19T11:35:53.033Z,50.10
2018-10-19T11:38:21.478Z,51.10
2018-10-19T11:40:49.926Z,51.90
2018-10-19T11:43:18.493Z,52.60
2018-10-19T11:45:46.826Z,54.30
2018-10-19T11:48:15.232Z,54.70
2018-10-19T11:50:43.668Z,52.00
2018-10-19T11:53:12.121Z,53.60
2018-10-19T11:55:40.549Z,55.00
2018-10-19T11:58:09.094Z,55.50
2018-10-19T12:00:37.556Z,54.20
2018-10-19T12:03:05.993Z,51.80
2018-10-19T12:05:34.441Z,50.80
2018-10-19T12:08:02.865Z,49.90
2018-10-19T12:10:31.458Z,50.40
2018-10-19T12:12:59.938Z,50.10
2018-10-19T12:15:28.312Z,52.60
2018-10-19T12:17:56.740Z,52.30
2018-10-19T12:20:25.195Z,50.80
2018-10-19T12:22:53.637Z,47.50
2018-10-19T12:25:22.130Z,46.00
2018-10-19T12:27:50.630Z,46.50
2018-10-19T12:30:19.051Z,45.30
2018-10-19T12:32:47.497Z,44.60
2018-10-19T12:35:15.936Z,44.40
2018-10-19T12:37:44.418Z,45.10
2018-10-19T12:40:12.895Z,44.40
2018-10-19T12:42:42.137Z,44.60
2018-10-19T12:46:22.863Z,43.70
2018-10-19T12:48:51.315Z,42.70
2018-10-19T12:51:20.429Z,43.40
2018-10-19T12:53:49.140Z,43.00
2018-10-19T12:56:18.695Z,44.40
2018-10-19T12:58:47.807Z,47.00
2018-10-19T13:01:16.383Z,49.00
2018-10-19T13:03:44.789Z,48.20
2018-10-19T13:06:13.269Z,47.10
2018-10-19T13:08:41.730Z,46.00
2018-10-19T13:11:10.172Z,45.50
2018-10-19T13:13:38.657Z,48.20
2018-10-19T13:16:07.196Z,52.40
2018-10-19T13:18:35.651Z,55.30
2018-10-19T13:21:04.238Z,57.00
2018-10-19T13:23:33.066Z,58.60
2018-10-19T13:26:01.696Z,59.00
2018-10-19T13:28:30.518Z,58.60
2018-10-19T13:30:59.010Z,60.50
2018-10-19T13:33:27.553Z,63.10
2018-10-19T13:35:56.062Z,65.40
2018-10-19T13:38:25.029Z,66.10
2018-10-19T13:40:54.209Z,67.50
2018-10-19T13:43:23.236Z,68.20
2018-10-19T13:45:52.157Z,68.90
2018-10-19T13:48:21.201Z,69.00
2018-10-19T13:50:49.757Z,69.80
2018-10-19T13:53:18.195Z,70.90
2018-10-19T13:55:46.696Z,71.30
2018-10-19T13:58:15.141Z,71.70
2018-10-19T14:00:43.649Z,71.80
2018-10-19T14:03:12.164Z,72.70
2018-10-19T14:05:40.766Z,73.10
2018-10-19T14:08:09.079Z,74.20
2018-10-19T14:10:37.566Z,74.60
2018-10-19T14:13:06.420Z,75.60
2018-10-19T14:15:34.890Z,75.70
2018-10-19T14:18:03.812Z,76.90
2018-10-19T14:20:32.285Z,78.20
2018-10-19T14:23:00.775Z,79.00
2018-10-19T14:25:29.240Z,79.40
2018-10-19T14:27:57.692Z,80.70
2018-10-19T14:30:26.174Z,81.10
2018-10-19T14:32:54.673Z,81.10
2018-10-19T14:35:23.126Z,81.90
2018-10-19T14:37:51.592Z,81.60
2018-10-19T14:40:20.697Z,83.00
2018-10-19T14:42:49.252Z,82.90
2018-10-19T14:45:18.172Z,83.70
2018-10-19T14:47:47.370Z,83.60
2018-10-19T14:50:16.985Z,84.40
2018-10-19T14:52:45.508Z,85.80
2018-10-19T14:55:15.424Z,85.40
2018-10-19T14:57:43.996Z,85.50
2018-10-19T15:00:13.785Z,84.60
2018-10-19T15:02:42.358Z,83.30
2018-10-19T15:05:13.217Z,83.30
2018-10-19T15:07:41.716Z,83.70
2018-10-19T15:10:13.892Z,84.20
2018-10-19T15:12:42.485Z,84.30
2018-10-19T15:15:13.002Z,85.20
2018-10-19T15:17:41.439Z,86.20
2018-10-19T15:20:10.067Z,86.50
2018-10-19T15:22:38.538Z,87.50
2018-10-19T15:25:08.639Z,88.30
2018-10-19T15:27:37.803Z,89.40
2018-10-19T15:30:07.368Z,89.80
2018-10-19T15:32:41.012Z,90.00
2018-10-19T15:35:10.135Z,90.20
2018-10-19T15:37:38.757Z,90.60
2018-10-19T15:40:08.154Z,90.70
2018-10-19T15:42:36.920Z,91.00
2018-10-19T15:45:07.178Z,91.30
2018-10-19T15:47:35.588Z,91.60
2018-10-19T15:50:04.181Z,92.10
2018-10-19T15:52:32.671Z,92.90
2018-10-19T15:55:01.119Z,93.50
2018-10-19T15:57:29.701Z,94.20
2018-10-19T15:59:58.126Z,94.10
2018-10-19T16:02:26.558Z,94.10
2018-10-19T16:04:55.013Z,94.40
2018-10-19T16:07:23.467Z,94.80
2018-10-19T16:09:51.946Z,95.10
2018-10-19T16:12:20.392Z,95.20
2018-10-19T16:14:48.868Z,95.40
2018-10-19T16:17:17.369Z,95.60
2018-10-19T16:19:45.887Z,95.70
2018-10-19T16:22:14.481Z,95.70
2018-10-19T16:24:42.950Z,95.70
2018-10-19T16:27:11.568Z,95.90
2018-10-19T16:29:40.015Z,96.10
2018-10-19T16:32:08.529Z,96.30
2018-10-19T16:34:37.000Z,96.50
2018-10-19T16:37:05.529Z,96.70
2018-10-19T16:39:34.022Z,97.00
2018-10-19T16:42:02.560Z,97.20
2018-10-19T16:44:31.042Z,97.40
2018-10-19T16:46:59.551Z,97.60
2018-10-19T16:49:28.102Z,97.80
2018-10-19T16:51:56.631Z,98.10
2018-10-19T16:54:25.084Z,98.40
2018-10-19T16:56:53.730Z,98.80
2018-10-19T16:59:22.162Z,99.10
2018-10-19T17:01:50.661Z,99.40
2018-10-19T17:04:19.263Z,99.50
2018-10-19T17:06:47.716Z,99.70
2018-10-19T17:09:16.185Z,99.80
2018-10-19T17:11:44.622Z,99.90
2018-10-19T17:14:13.139Z,99.90
2018-10-19T17:16:41.727Z,99.90
2018-10-19T17:19:10.509Z,99.90
2018-10-19T17:21:38.915Z,99.90
2018-10-19T17:24:07.483Z,99.90
2018-10-19T17:26:35.892Z,99.90
2018-10-19T17:29:04.527Z,99.90
2018-10-19T17:31:33.044Z,99.90
2018-10-19T17:34:01.524Z,99.90
2018-10-19T17:36:29.986Z,99.90
2018-10-19T17:38:58.486Z,99.90
2018-10-19T17:41:26.953Z,99.90
2018-10-19T17:43:55.424Z,99.90
2018-10-19T17:46:23.911Z,99.90
2018-10-19T17:48:52.510Z,99.90
2018-10-19T17:51:20.953Z,99.90
2018-10-19T17:53:49.401Z,99.90
2018-10-19T17:56:17.826Z,99.90
2018-10-19T17:58:46.279Z,99.90
2018-10-19T18:01:14.722Z,99.90
2018-10-19T18:03:43.173Z,99.90
2018-10-19T18:06:11.722Z,99.90
2018-10-19T18:08:40.091Z,99.90
2018-10-19T18:11:08.657Z,99.90
2018-10-19T18:13:37.041Z,99.90
2018-10-19T18:16:05.629Z,99.90
2018-10-19T18:18:34.040Z,99.90
2018-10-19T18:21:02.525Z,99.90
2018-10-19T18:23:30.954Z,99.90
2018-10-19T18:25:59.464Z,99.90
2018-10-19T18:28:27.848Z,99.90
2018-10-19T18:30:56.298Z,99.90
2018-10-19T18:33:24.729Z,99.90
2018-10-19T18:35:53.172Z,99.90
2018-10-19T18:38:21.589Z,99.90
2018-10-19T18:40:49.993Z,99.90
2018-10-19T18:43:18.465Z,99.90
2018-10-19T18:45:46.930Z,99.90
2018-10-19T18:48:15.382Z,99.90
2018-10-19T18:50:43.904Z,99.90
2018-10-19T18:53:12.436Z,99.90
2018-10-19T18:55:40.846Z,99.90
2018-10-19T18:58:09.353Z,99.90
2018-10-19T19:00:37.872Z,99.90
2018-10-19T19:03:06.600Z,99.90
2018-10-19T19:05:35.055Z,99.90
2018-10-19T19:08:03.573Z,99.90
2018-10-19T19:10:31.990Z,99.90
2018-10-19T19:13:05.917Z,99.90
2018-10-19T19:15:34.337Z,99.90
2018-10-19T19:18:02.788Z,99.90
2018-10-19T19:20:31.528Z,99.90
2018-10-19T19:23:00.080Z,99.90
2018-10-19T19:25:33.813Z,99.90
2018-10-19T19:28:02.278Z,99.90
2018-10-19T19:30:30.741Z,99.90
2018-10-19T19:33:04.567Z,99.90
2018-10-19T19:35:33.032Z,99.90
2018-10-19T19:38:01.533Z,99.90
2018-10-19T19:40:34.156Z,99.90
2018-10-19T19:43:02.709Z,99.90
2018-10-19T19:45:31.242Z,99.90
2018-10-19T19:49:02.937Z,99.90
2018-10-19T19:51:31.307Z,99.90
2018-10-19T19:53:59.735Z,99.90
2018-10-19T19:56:28.229Z,99.90
2018-10-19T19:58:56.656Z,99.90
2018-10-19T20:01:25.115Z,99.90
2018-10-19T20:03:53.544Z,99.90
2018-10-19T20:06:22.112Z,99.90
2018-10-19T20:08:50.499Z,99.90
2018-10-19T20:11:18.992Z,99.90
2018-10-19T20:13:47.515Z,99.90
2018-10-19T20:16:15.974Z,99.90
2018-10-19T20:18:44.417Z,99.90
2018-10-19T20:21:12.873Z,99.90
2018-10-19T20:23:41.323Z,99.90
2018-10-19T20:26:09.854Z,99.90
2018-10-19T20:28:38.262Z,99.90
2018-10-19T20:31:06.821Z,99.90
2018-10-19T20:33:35.230Z,99.90
2018-10-19T20:36:03.670Z,99.90
2018-10-19T20:38:32.165Z,99.90
2018-10-19T20:41:00.744Z,99.90
2018-10-19T20:43:29.098Z,99.90
2018-10-19T20:45:57.540Z,99.90
2018-10-19T20:48:25.989Z,99.90
2018-10-19T20:50:54.390Z,99.90
2018-10-19T20:53:22.846Z,99.90
2018-10-19T20:55:51.287Z,99.90
2018-10-19T20:58:19.703Z,99.90
2018-10-19T21:00:48.244Z,99.90
2018-10-19T21:03:16.610Z,99.90
2018-10-19T21:05:45.043Z,99.90
2018-10-19T21:08:13.554Z,99.90
2018-10-19T21:10:41.945Z,99.90
2018-10-19T21:13:10.367Z,99.90
2018-10-19T21:15:38.839Z,99.90
2018-10-19T21:18:07.257Z,99.90
2018-10-19T21:20:35.717Z,99.90
2018-10-19T21:23:04.229Z,99.90
2018-10-19T21:25:32.623Z,99.90
2018-10-19T21:28:01.059Z,99.90
2018-10-19T21:30:29.534Z,99.90
2018-10-19T21:32:57.957Z,99.90
2018-10-19T21:35:26.402Z,99.90
2018-10-19T21:37:54.871Z,99.90
2018-10-19T21:40:23.324Z,99.90
2018-10-19T21:42:51.742Z,99.90
2018-10-19T21:45:20.150Z,99.90
2018-10-19T21:47:48.647Z,99.90
2018-10-19T21:50:21.701Z,99.90
2018-10-19T21:52:50.841Z,99.90
2018-10-19T21:55:19.304Z,99.90
2018-10-19T21:57:47.742Z,99.90
2018-10-19T22:00:16.188Z,99.90
2018-10-19T22:02:44.649Z,99.90
2018-10-19T22:05:13.151Z,99.90
2018-10-19T22:07:41.590Z,99.90
2018-10-19T22:10:10.058Z,99.90
2018-10-19T22:12:38.474Z,99.90
2018-10-19T22:15:07.462Z,99.90
2018-10-19T22:17:35.949Z,99.90
2018-10-19T22:20:04.471Z,99.90
2018-10-19T22:22:32.911Z,99.90
2018-10-19T22:25:01.385Z,99.90
2018-10-19T22:27:29.853Z,99.90
2018-10-19T22:29:58.273Z,99.90
2018-10-19T22:32:26.682Z,99.90
2018-10-19T22:34:55.135Z,99.90
2018-10-19T22:37:23.562Z,99.90
2018-10-19T22:39:52.047Z,99.90
2018-10-19T22:42:20.479Z,99.90
2018-10-19T22:44:49.162Z,99.90
2018-10-19T22:47:17.585Z,99.90
2018-10-19T22:49:45.981Z,99.90
2018-10-19T22:52:14.373Z,99.90
2018-10-19T22:54:42.805Z,99.90
2018-10-19T22:57:11.226Z,99.90
2018-10-19T22:59:39.660Z,99.90
2018-10-19T23:02:08.154Z,99.90
2018-10-19T23:04:36.558Z,99.90
2018-10-19T23:07:05.354Z,99.90
2018-10-19T23:09:33.905Z,99.90
2018-10-19T23:12:02.346Z,99.90
2018-10-19T23:14:30.787Z,99.90
2018-10-19T23:16:59.276Z,99.90
2018-10-19T23:19:27.695Z,99.90
2018-10-19T23:21:56.143Z,99.90
2018-10-19T23:24:24.612Z,99.90
2018-10-19T23:26:53.127Z,99.90
2018-10-19T23:29:21.650Z,99.90
2018-10-19T23:31:50.123Z,99.90
2018-10-19T23:34:18.610Z,99.90
2018-10-19T23:36:47.025Z,99.90
2018-10-19T23:39:15.466Z,99.90
2018-10-19T23:41:43.900Z,99.90
2018-10-19T23:44:12.372Z,99.90
2018-10-19T23:46:40.834Z,99.90
2018-10-19T23:49:09.647Z,99.90
2018-10-19T23:51:38.044Z,99.90
2018-10-19T23:54:06.518Z,99.90
2018-10-19T23:56:34.940Z,99.90
2018-10-19T23:59:03.495Z,99.90
